Time;durP1;ratioP1;P1;durP2;ratioP2;P2;SDS_P1;SDS_P2;PMS_P1;PMS_P2;Temp;Humidity;BMP_temperature;BMP_pressure;BME280_temperature;BME280_humidity;BME280_pressure;Samples;Min_cycle;Max_cycle;Signal;HPM_P1;HPM_P2
2022/07/15 00:01:46;;;;;;;;;;;;;;;;;;4955823;28;20262;-78
2022/07/15 00:04:12;;;;;;;;;;;;;;;;;;4972707;28;19994;-78
2022/07/15 00:06:37;;;;;;;;;;;;;;;;;;4956179;28;19921;-78
2022/07/15 00:09:03;;;;;;;;;;;;;;;;;;4973240;28;20301;-78
2022/07/15 00:11:28;;;;;;;;;;;;;;;;;;4973313;28;19915;-79
2022/07/15 00:13:53;;;;;;;;;;;;;;;;;;4973073;28;20326;-79
2022/07/15 00:16:19;;;;;;;;;;;;;;;;;;4940192;28;19941;-78
2022/07/15 00:18:44;;;;;;;;;;;;;;;;;;4955952;28;20305;-79
2022/07/15 00:21:10;;;;;;;;;;;;;;;;;;4955786;28;20329;-78
2022/07/15 00:23:35;;;;;;;;;;;;;;;;;;4955753;28;19918;-77
2022/07/15 00:26:01;;;;;;;;;;;;;;;;;;4973019;28;20400;-78
2022/07/15 00:28:28;;;;;;;;;;;;;;;;;;4940117;28;20399;-79
2022/07/15 00:30:53;;;;;;;;;;;;;;;;;;4956051;28;20373;-77
2022/07/15 00:33:18;;;;;;;;;;;;;;;;;;4939694;28;19918;-78
2022/07/15 00:35:44;;;;;;;;;;;;;;;;;;4931684;29;19989;-77
2022/07/15 00:38:09;;;;;;;;;;;;;;;;;;4936515;29;20415;-78
2022/07/15 00:40:35;;;;;;;;;;;;;;;;;;4936575;29;19915;-77
2022/07/15 00:43:00;;;;;;;;;;;;;;;;;;4953568;28;20362;-78
2022/07/15 00:45:26;;;;;;;;;;;;;;;;;;4953717;29;19915;-78
2022/07/15 00:47:51;;;;;;;;;;;;;;;;;;4922545;29;19915;-77
2022/07/15 00:50:17;;;;;;;;;;;;;;;;;;4939875;29;19915;-78
2022/07/15 00:52:42;;;;;;;;;;;;;;;;;;4939856;29;19921;-78
2022/07/15 00:55:08;;;;;;;;;;;;;;;;;;4940024;29;20378;-78
2022/07/15 00:57:33;;;;;;;;;;;;;;;;;;4956912;28;19945;-79
2022/07/15 00:59:58;;;;;;;;;;;;;;;;;;4955785;28;20400;-78
2022/07/15 01:02:24;;;;;;;;;;;;;;;;;;4955645;29;19915;-77
2022/07/15 01:04:49;;;;;;;;;;;;;;;;;;4939874;29;20008;-78
2022/07/15 01:07:15;;;;;;;;;;;;;;;;;;4955873;28;19937;-78
2022/07/15 01:09:41;;;;;;;;;;;;;;;;;;4958311;28;19921;-77
2022/07/15 01:12:06;;;;;;;;;;;;;;;;;;4942954;28;19921;-78
2022/07/15 01:14:32;;;;;;;;;;;;;;;;;;4958766;28;20324;-78
2022/07/15 01:16:57;;;;;;;;;;;;;;;;;;4974958;28;20408;-78
2022/07/15 01:19:23;;;;;;;;;;;;;;;;;;4958852;28;19965;-78
2022/07/15 01:21:48;;;;;;;;;;;;;;;;;;4942694;28;20325;-78
2022/07/15 01:24:14;;;;;;;;;;;;;;;;;;4958361;28;19929;-78
2022/07/15 01:26:45;;;;;;;;;;;;;;;;;;4950656;29;20013;-78
2022/07/15 01:29:13;;;;;;;;;;;;;;;;;;4923821;29;19921;-79
2022/07/15 01:31:39;;;;;;;;;;;;;;;;;;4955418;29;19918;-78
2022/07/15 01:34:05;;;;;;;;;;;;;;;;;;4923244;29;19914;-78
2022/07/15 01:36:31;;;;;;;;;;;;;;;;;;4939443;29;19914;-78
2022/07/15 01:38:59;;;;;;;;;;;;;;;;;;4939189;29;19922;-78
2022/07/15 01:41:24;;;;;;;;;;;;;;;;;;4924153;28;19915;-78
2022/07/15 01:43:50;;;;;;;;;;;;;;;;;;4942136;28;20376;-79
2022/07/15 01:46:16;;;;;;;;;;;;;;;;;;4942369;28;20309;-79
2022/07/15 01:51:42;;;;;;;;;;;;;;;;;;4958184;28;19914;-78
2022/07/15 01:54:08;;;;;;;;;;;;;;;;;;4942095;28;20392;-77
2022/07/15 01:56:36;;;;;;;;;;;;;;;;;;4957999;28;19918;-77
2022/07/15 01:59:02;;;;;;;;;;;;;;;;;;4973691;28;19914;-78
2022/07/15 02:01:28;;;;;;;;;;;;;;;;;;4958083;28;20289;-78
2022/07/15 02:03:54;;;;;;;;;;;;;;;;;;4941896;28;20370;-78
2022/07/15 02:06:19;;;;;;;;;;;;;;;;;;4975096;28;20017;-78
2022/07/15 02:08:45;;;;;;;;;;;;;;;;;;4942115;28;19918;-78
2022/07/15 02:11:13;;;;;;;;;;;;;;;;;;4926917;28;20394;-79
2022/07/15 02:13:38;;;;;;;;;;;;;;;;;;4959052;28;19918;-76
2022/07/15 02:16:04;;;;;;;;;;;;;;;;;;4943258;28;19950;-77
2022/07/15 02:18:29;;;;;;;;;;;;;;;;;;4976987;28;20281;-76
2022/07/15 02:20:54;;;;;;;;;;;;;;;;;;4961456;28;19957;-77
2022/07/15 02:23:20;;;;;;;;;;;;;;;;;;4928264;28;19918;-76
2022/07/15 02:25:45;;;;;;;;;;;;;;;;;;4976675;28;20278;-75
2022/07/15 02:28:11;;;;;;;;;;;;;;;;;;4959443;28;20310;-77
2022/07/15 02:30:36;;;;;;;;;;;;;;;;;;4926184;28;20361;-76
2022/07/15 02:33:01;;;;;;;;;;;;;;;;;;4917241;29;19914;-76
2022/07/15 02:35:27;;;;;;;;;;;;;;;;;;4955653;29;19922;-76
2022/07/15 02:37:52;;;;;;;;;;;;;;;;;;4938367;29;19915;-76
2022/07/15 02:40:18;;;;;;;;;;;;;;;;;;4938338;29;19960;-77
2022/07/15 02:42:44;;;;;;;;;;;;;;;;;;4922071;29;20290;-76
2022/07/15 02:45:09;;;;;;;;;;;;;;;;;;4924130;29;20571;-75
2022/07/15 02:47:34;;;;;;;;;;;;;;;;;;4938177;29;19915;-76
2022/07/15 02:50:02;;;;;;;;;;;;;;;;;;4924420;29;19920;-76
2022/07/15 02:52:29;;;;;;;;;;;;;;;;;;4940357;29;20397;-76
2022/07/15 02:54:55;;;;;;;;;;;;;;;;;;4955343;28;19910;-74
2022/07/15 02:57:20;;;;;;;;;;;;;;;;;;4956183;28;20498;-76
2022/07/15 02:59:46;;;;;;;;;;;;;;;;;;4938258;29;19915;-75
2022/07/15 03:02:12;;;;;;;;;;;;;;;;;;4953830;28;20305;-76
2022/07/15 03:04:41;;;;;;;;;;;;;;;;;;4953532;28;19919;-75
2022/07/15 03:07:06;;;;;;;;;;;;;;;;;;4965815;28;19964;-75
2022/07/15 03:09:31;;;;;;;;;;;;;;;;;;4956512;28;20369;-75
2022/07/15 03:11:57;;;;;;;;;;;;;;;;;;4940900;28;19921;-76
2022/07/15 03:14:23;;;;;;;;;;;;;;;;;;4973689;28;19918;-77
2022/07/15 03:16:48;;;;;;;;;;;;;;;;;;4973034;28;19914;-77
2022/07/15 03:19:14;;;;;;;;;;;;;;;;;;4940915;28;20448;-77
2022/07/15 03:21:43;;;;;;;;;;;;;;;;;;4932133;29;19915;-76
2022/07/15 03:24:12;;;;;;;;;;;;;;;;;;4937135;29;20005;-77
2022/07/15 03:26:39;;;;;;;;;;;;;;;;;;4937507;29;19926;-77
2022/07/15 03:29:05;;;;;;;;;;;;;;;;;;4937601;29;19914;-77
2022/07/15 03:31:32;;;;;;;;;;;;;;;;;;4954582;29;19957;-77
2022/07/15 03:33:58;;;;;;;;;;;;;;;;;;4937274;29;19940;-77
2022/07/15 03:36:25;;;;;;;;;;;;;;;;;;4937085;29;20409;-78
2022/07/15 03:38:51;;;;;;;;;;;;;;;;;;4971622;28;19951;-76
2022/07/15 03:41:17;;;;;;;;;;;;;;;;;;4956385;28;19914;-75
2022/07/15 03:43:42;;;;;;;;;;;;;;;;;;4955970;28;20268;-76
2022/07/15 03:46:08;;;;;;;;;;;;;;;;;;4940315;28;19914;-77
2022/07/15 03:48:33;;;;;;;;;;;;;;;;;;4940362;28;19914;-78
2022/07/15 03:50:59;;;;;;;;;;;;;;;;;;4940317;28;19960;-76
2022/07/15 03:53:24;;;;;;;;;;;;;;;;;;4956119;28;19914;-75
2022/07/15 03:55:50;;;;;;;;;;;;;;;;;;4927401;29;19918;-75
2022/07/15 03:58:17;;;;;;;;;;;;;;;;;;4937161;29;19915;-76
2022/07/15 04:00:42;;;;;;;;;;;;;;;;;;4921424;29;20291;-75
2022/07/15 04:03:08;;;;;;;;;;;;;;;;;;4962259;23;20349;-88
2022/07/15 04:05:33;;;;;;;;;;;;;;;;;;5029077;28;19960;-89
2022/07/15 04:07:58;;;;;;;;;;;;;;;;;;5031130;28;19913;-87
2022/07/15 04:10:25;;;;;;;;;;;;;;;;;;5025244;28;20324;-89
2022/07/15 04:12:52;;;;;;;;;;;;;;;;;;5027911;28;19904;-91
2022/07/15 04:15:19;;;;;;;;;;;;;;;;;;4996448;28;19906;-90
2022/07/15 04:17:45;;;;;;;;;;;;;;;;;;4993209;28;19920;-89
2022/07/15 04:20:12;;;;;;;;;;;;;;;;;;4993232;28;19960;-89
2022/07/15 04:22:39;;;;;;;;;;;;;;;;;;4993139;28;19929;-87
2022/07/15 04:25:05;;;;;;;;;;;;;;;;;;4989978;28;19910;-89
2022/07/15 04:27:30;;;;;;;;;;;;;;;;;;4996152;28;19914;-89
2022/07/15 04:29:57;;;;;;;;;;;;;;;;;;4980299;28;20103;-88
2022/07/15 04:32:26;;;;;;;;;;;;;;;;;;4990778;28;19914;-90
2022/07/15 04:34:55;;;;;;;;;;;;;;;;;;4993061;28;19920;-89
2022/07/15 04:37:21;;;;;;;;;;;;;;;;;;4991139;28;19914;-89
2022/07/15 04:39:51;;;;;;;;;;;;;;;;;;5009223;28;19914;-88
2022/07/15 04:42:16;;;;;;;;;;;;;;;;;;4994439;28;19921;-91
2022/07/15 04:44:42;;;;;;;;;;;;;;;;;;4994296;28;19950;-88
2022/07/15 04:47:08;;;;;;;;;;;;;;;;;;4994175;28;19921;-90
2022/07/15 04:52:27;;;;;;;;;;;;;;;;;;4983008;28;19925;-87
2022/07/15 04:54:52;;;;;;;;;;;;;;;;;;4990822;28;19914;-90
2022/07/15 04:57:18;;;;;;;;;;;;;;;;;;4974340;28;19914;-90
2022/07/15 04:59:44;;;;;;;;;;;;;;;;;;4974815;28;19935;-90
2022/07/15 05:02:13;;;;;;;;;;;;;;;;;;4978046;28;19914;-90
2022/07/15 05:04:43;;;;;;;;;;;;;;;;;;4989961;28;19918;-89
2022/07/15 05:07:13;;;;;;;;;;;;;;;;;;4973422;28;20052;-90
2022/07/15 05:09:39;;;;;;;;;;;;;;;;;;4964996;28;19917;-91
2022/07/15 05:12:05;;;;;;;;;;;;;;;;;;4968635;28;19914;-90
2022/07/15 05:14:40;;;;;;;;;;;;;;;;;;4968487;28;19914;-91
2022/07/15 05:17:15;;;;;;;;;;;;;;;;;;4974924;28;19918;-90
2022/07/15 05:19:43;;;;;;;;;;;;;;;;;;4984441;28;19961;-89
2022/07/15 05:22:08;;;;;;;;;;;;;;;;;;5002399;28;19905;-89
2022/07/15 05:24:34;;;;;;;;;;;;;;;;;;5001140;28;19906;-90
2022/07/15 05:27:02;;;;;;;;;;;;;;;;;;5000677;28;19941;-91
2022/07/15 05:29:30;;;;;;;;;;;;;;;;;;5002622;28;19906;-87
2022/07/15 05:31:56;;;;;;;;;;;;;;;;;;4995809;28;19925;-89
2022/07/15 05:34:22;;;;;;;;;;;;;;;;;;4982506;28;19910;-89
2022/07/15 05:36:48;;;;;;;;;;;;;;;;;;4983558;28;19913;-88
2022/07/15 05:39:15;;;;;;;;;;;;;;;;;;4982489;28;19996;-87
2022/07/15 05:41:41;;;;;;;;;;;;;;;;;;4997270;28;19968;-85
2022/07/15 05:44:07;;;;;;;;;;;;;;;;;;4979150;28;19921;-85
2022/07/15 05:46:38;;;;;;;;;;;;;;;;;;4979145;28;19914;-85
2022/07/15 05:49:04;;;;;;;;;;;;;;;;;;5011787;28;19947;-85
2022/07/15 05:51:29;;;;;;;;;;;;;;;;;;4991088;28;19914;-87
2022/07/15 05:53:57;;;;;;;;;;;;;;;;;;4992945;28;19918;-88
2022/07/15 05:56:23;;;;;;;;;;;;;;;;;;5008745;28;20317;-85
2022/07/15 05:58:48;;;;;;;;;;;;;;;;;;4991236;28;19920;-85
2022/07/15 06:01:14;;;;;;;;;;;;;;;;;;4975132;28;19918;-89
2022/07/15 06:03:43;;;;;;;;;;;;;;;;;;4990319;28;19965;-89
2022/07/15 06:06:11;;;;;;;;;;;;;;;;;;4986513;28;19918;-87
2022/07/15 06:08:38;;;;;;;;;;;;;;;;;;4980187;28;19914;-86
2022/07/15 06:11:04;;;;;;;;;;;;;;;;;;4961815;28;19921;-85
2022/07/15 06:13:29;;;;;;;;;;;;;;;;;;4962169;28;19921;-85
2022/07/15 06:15:55;;;;;;;;;;;;;;;;;;5009115;28;19922;-86
2022/07/15 06:18:23;;;;;;;;;;;;;;;;;;4977018;28;20008;-86
2022/07/15 06:20:53;;;;;;;;;;;;;;;;;;4960809;28;19961;-86
2022/07/15 06:23:18;;;;;;;;;;;;;;;;;;4979540;28;19922;-88
2022/07/15 06:25:44;;;;;;;;;;;;;;;;;;4980762;28;19914;-86
2022/07/15 06:28:10;;;;;;;;;;;;;;;;;;4996138;28;19910;-87
2022/07/15 06:30:35;;;;;;;;;;;;;;;;;;4994586;28;19918;-87
2022/07/15 06:33:00;;;;;;;;;;;;;;;;;;4994781;28;19914;-87
2022/07/15 06:35:27;;;;;;;;;;;;;;;;;;5026692;28;20392;-84
2022/07/15 06:37:53;;;;;;;;;;;;;;;;;;4993529;28;20344;-87
2022/07/15 06:40:18;;;;;;;;;;;;;;;;;;4985668;28;19916;-85
2022/07/15 06:42:44;;;;;;;;;;;;;;;;;;4991621;28;19914;-85
2022/07/15 06:45:13;;;;;;;;;;;;;;;;;;4991899;28;19922;-87
2022/07/15 06:47:38;;;;;;;;;;;;;;;;;;4975159;28;19914;-85
2022/07/15 06:50:04;;;;;;;;;;;;;;;;;;4975601;28;19949;-87
2022/07/15 06:52:30;;;;;;;;;;;;;;;;;;4990186;28;20245;-78
2022/07/15 06:54:55;;;;;;;;;;;;;;;;;;5008431;28;20375;-85
2022/07/15 06:57:21;;;;;;;;;;;;;;;;;;5004042;28;20366;-79
2022/07/15 06:59:47;;;;;;;;;;;;;;;;;;5006549;28;19937;-87
2022/07/15 07:02:12;;;;;;;;;;;;;;;;;;4977291;28;19941;-84
2022/07/15 07:04:42;;;;;;;;;;;;;;;;;;4992031;28;19925;-87
2022/07/15 07:07:16;;;;;;;;;;;;;;;;;;4975838;28;19925;-82
2022/07/15 07:09:53;;;;;;;;;;;;;;;;;;4975650;28;19953;-81
2022/07/15 07:12:19;;;;;;;;;;;;;;;;;;4973758;28;19913;-83
2022/07/15 07:14:44;;;;;;;;;;;;;;;;;;4976698;28;19910;-84
2022/07/15 07:17:09;;;;;;;;;;;;;;;;;;5008651;28;19914;-82
2022/07/15 07:19:36;;;;;;;;;;;;;;;;;;4992276;28;19914;-82
2022/07/15 07:22:04;;;;;;;;;;;;;;;;;;4976293;28;19914;-82
2022/07/15 07:24:29;;;;;;;;;;;;;;;;;;4991573;28;19925;-82
2022/07/15 07:26:54;;;;;;;;;;;;;;;;;;4975300;28;20381;-81
2022/07/15 07:29:23;;;;;;;;;;;;;;;;;;5008231;28;19914;-81
2022/07/15 07:31:55;;;;;;;;;;;;;;;;;;5008389;28;20099;-81
2022/07/15 07:34:29;;;;;;;;;;;;;;;;;;4993046;28;19914;-82
2022/07/15 07:36:54;;;;;;;;;;;;;;;;;;4975673;28;20429;-84
2022/07/15 07:39:23;;;;;;;;;;;;;;;;;;4992277;28;19910;-83
2022/07/15 07:41:55;;;;;;;;;;;;;;;;;;4987569;28;19914;-81
2022/07/15 07:44:21;;;;;;;;;;;;;;;;;;4991584;28;19918;-80
2022/07/15 07:46:46;;;;;;;;;;;;;;;;;;4992691;28;20428;-80
2022/07/15 07:49:15;;;;;;;;;;;;;;;;;;5008874;28;20381;-81
2022/07/15 07:51:44;;;;;;;;;;;;;;;;;;4976336;28;19913;-81
2022/07/15 07:54:09;;;;;;;;;;;;;;;;;;4975774;28;20412;-81
2022/07/15 07:56:35;;;;;;;;;;;;;;;;;;4995135;28;20347;-81
2022/07/15 07:59:00;;;;;;;;;;;;;;;;;;4996120;28;19933;-82
2022/07/15 08:01:26;;;;;;;;;;;;;;;;;;4996075;28;20261;-84
2022/07/15 08:03:51;;;;;;;;;;;;;;;;;;4995333;28;20005;-81
2022/07/15 08:06:17;;;;;;;;;;;;;;;;;;4979550;28;19921;-82
2022/07/15 08:08:45;;;;;;;;;;;;;;;;;;4996118;28;19950;-82
2022/07/15 08:11:14;;;;;;;;;;;;;;;;;;4980111;28;19913;-83
2022/07/15 08:13:39;;;;;;;;;;;;;;;;;;4996477;28;20360;-84
2022/07/15 08:16:08;;;;;;;;;;;;;;;;;;5012690;28;19968;-82
2022/07/15 08:18:36;;;;;;;;;;;;;;;;;;4980401;28;20422;-81
2022/07/15 08:21:03;;;;;;;;;;;;;;;;;;4996165;28;19926;-84
2022/07/15 08:23:28;;;;;;;;;;;;;;;;;;5012188;28;19924;-82
2022/07/15 08:25:54;;;;;;;;;;;;;;;;;;4997180;28;20292;-84
2022/07/15 08:28:20;;;;;;;;;;;;;;;;;;4996096;28;19921;-84
2022/07/15 08:30:46;;;;;;;;;;;;;;;;;;4997519;28;20399;-83
2022/07/15 08:33:11;;;;;;;;;;;;;;;;;;5012424;28;19914;-83
2022/07/15 08:35:37;;;;;;;;;;;;;;;;;;4979637;28;19945;-86
2022/07/15 08:38:05;;;;;;;;;;;;;;;;;;5000009;28;19917;-90
2022/07/15 08:40:36;;;;;;;;;;;;;;;;;;4996668;28;19913;-89
2022/07/15 08:43:02;;;;;;;;;;;;;;;;;;4997269;28;19918;-86
2022/07/15 08:45:27;;;;;;;;;;;;;;;;;;4979801;28;20003;-86
2022/07/15 08:47:53;;;;;;;;;;;;;;;;;;4980415;28;19910;-86
2022/07/15 08:50:18;;;;;;;;;;;;;;;;;;4980162;28;19981;-88
2022/07/15 08:52:43;;;;;;;;;;;;;;;;;;4995377;28;19913;-87
2022/07/15 08:55:12;;;;;;;;;;;;;;;;;;4979689;28;19914;-87
2022/07/15 08:57:38;;;;;;;;;;;;;;;;;;4979197;28;20331;-88
2022/07/15 09:00:04;;;;;;;;;;;;;;;;;;4979833;28;19960;-90
2022/07/15 09:02:30;;;;;;;;;;;;;;;;;;4972131;28;19914;-87
2022/07/15 09:04:56;;;;;;;;;;;;;;;;;;4976402;28;20414;-87
2022/07/15 09:07:21;;;;;;;;;;;;;;;;;;4976177;28;19914;-86
2022/07/15 09:09:47;;;;;;;;;;;;;;;;;;4993366;28;20005;-88
2022/07/15 09:12:13;;;;;;;;;;;;;;;;;;4978148;28;20034;-87
2022/07/15 09:14:42;;;;;;;;;;;;;;;;;;4978092;28;20377;-86
2022/07/15 09:17:08;;;;;;;;;;;;;;;;;;4992379;28;20395;-88
2022/07/15 09:19:36;;;;;;;;;;;;;;;;;;4978307;28;19914;-87
2022/07/15 09:22:02;;;;;;;;;;;;;;;;;;4977438;28;19922;-87
2022/07/15 09:24:28;;;;;;;;;;;;;;;;;;4975473;28;19918;-85
2022/07/15 09:26:53;;;;;;;;;;;;;;;;;;4992279;28;20401;-85
2022/07/15 09:34:47;;;;;;;;;;;;;;;;;;4975816;28;19949;-86
2022/07/15 09:37:13;;;;;;;;;;;;;;;;;;4975737;28;19910;-86
2022/07/15 09:39:38;;;;;;;;;;;;;;;;;;4976340;28;19917;-86
2022/07/15 09:42:04;;;;;;;;;;;;;;;;;;4992739;28;20029;-89
2022/07/15 09:44:31;;;;;;;;;;;;;;;;;;4977471;28;19922;-88
2022/07/15 09:47:00;;;;;;;;;;;;;;;;;;4997163;28;19953;-87
2022/07/15 09:49:25;;;;;;;;;;;;;;;;;;4983247;28;19937;-90
2022/07/15 09:51:50;;;;;;;;;;;;;;;;;;4987267;28;20357;-87
2022/07/15 09:54:16;;;;;;;;;;;;;;;;;;4980248;28;19917;-86
2022/07/15 09:56:41;;;;;;;;;;;;;;;;;;4981765;28;19918;-84
2022/07/15 09:59:07;;;;;;;;;;;;;;;;;;4985282;28;19914;-86
2022/07/15 10:01:33;;;;;;;;;;;;;;;;;;5004851;28;19914;-91
2022/07/15 10:04:06;;;;;;;;;;;;;;;;;;4981613;28;19945;-88
2022/07/15 10:06:32;;;;;;;;;;;;;;;;;;4987596;28;19914;-86
2022/07/15 10:09:03;;;;;;;;;;;;;;;;;;5019686;28;19909;-90
2022/07/15 10:11:35;;;;;;;;;;;;;;;;;;5015615;28;19913;-90
2022/07/15 10:14:03;;;;;;;;;;;;;;;;;;4996208;28;20008;-86
2022/07/15 10:16:31;;;;;;;;;;;;;;;;;;5010403;28;19945;-83
2022/07/15 10:18:59;;;;;;;;;;;;;;;;;;4995764;28;19989;-86
2022/07/15 10:21:25;;;;;;;;;;;;;;;;;;4978166;28;20388;-83
2022/07/15 10:23:51;;;;;;;;;;;;;;;;;;4977403;28;19917;-86
2022/07/15 10:26:17;;;;;;;;;;;;;;;;;;4977911;28;20357;-87
2022/07/15 10:28:46;;;;;;;;;;;;;;;;;;4976250;28;19921;-84
2022/07/15 10:31:11;;;;;;;;;;;;;;;;;;4976540;28;19914;-83
2022/07/15 10:33:37;;;;;;;;;;;;;;;;;;4988112;28;19937;-80
2022/07/15 10:36:05;;;;;;;;;;;;;;;;;;4973143;28;19933;-82
2022/07/15 10:38:31;;;;;;;;;;;;;;;;;;4975150;28;19914;-82
2022/07/15 10:40:56;;;;;;;;;;;;;;;;;;4973552;28;19988;-82
2022/07/15 10:43:21;;;;;;;;;;;;;;;;;;4989715;28;19914;-83
2022/07/15 10:45:47;;;;;;;;;;;;;;;;;;4974657;28;19914;-82
2022/07/15 10:48:12;;;;;;;;;;;;;;;;;;4989749;28;20449;-85
2022/07/15 10:50:38;;;;;;;;;;;;;;;;;;4974176;28;19914;-86
2022/07/15 10:53:03;;;;;;;;;;;;;;;;;;5006656;28;20016;-80
2022/07/15 10:55:28;;;;;;;;;;;;;;;;;;5006426;28;19931;-83
2022/07/15 10:57:54;;;;;;;;;;;;;;;;;;4973765;28;19924;-82
2022/07/15 11:00:19;;;;;;;;;;;;;;;;;;4975724;28;19936;-84
2022/07/15 11:02:45;;;;;;;;;;;;;;;;;;5006566;28;20388;-82
2022/07/15 11:05:10;;;;;;;;;;;;;;;;;;4988944;28;19918;-80
2022/07/15 11:07:38;;;;;;;;;;;;;;;;;;4974064;28;20393;-80
2022/07/15 11:10:03;;;;;;;;;;;;;;;;;;4974675;28;19925;-79
2022/07/15 11:12:29;;;;;;;;;;;;;;;;;;4973468;28;20194;-77
2022/07/15 11:14:54;;;;;;;;;;;;;;;;;;4974831;28;20396;-84
2022/07/15 11:17:20;;;;;;;;;;;;;;;;;;5006801;28;19914;-87
2022/07/15 11:19:45;;;;;;;;;;;;;;;;;;4976005;28;19914;-85
2022/07/15 11:22:11;;;;;;;;;;;;;;;;;;4993169;28;19910;-86
2022/07/15 11:24:36;;;;;;;;;;;;;;;;;;4992626;28;19922;-84
2022/07/15 11:27:02;;;;;;;;;;;;;;;;;;4976796;28;19981;-87
2022/07/15 11:29:27;;;;;;;;;;;;;;;;;;4977481;28;20324;-89
2022/07/15 11:31:53;;;;;;;;;;;;;;;;;;4976447;28;20348;-87
2022/07/15 11:34:18;;;;;;;;;;;;;;;;;;4977471;28;19976;-87
2022/07/15 11:36:44;;;;;;;;;;;;;;;;;;4976560;28;19956;-86
2022/07/15 11:39:09;;;;;;;;;;;;;;;;;;4993736;28;19918;-87
2022/07/15 11:45:00;;;;;;;;;;;;;;;;;;4992013;28;19918;-85
2022/07/15 11:47:26;;;;;;;;;;;;;;;;;;4977390;28;19924;-86
2022/07/15 11:49:51;;;;;;;;;;;;;;;;;;4993488;28;20281;-86
2022/07/15 11:52:17;;;;;;;;;;;;;;;;;;4977229;28;19952;-87
2022/07/15 11:54:42;;;;;;;;;;;;;;;;;;4977010;28;19973;-88
2022/07/15 11:57:08;;;;;;;;;;;;;;;;;;4977114;28;20353;-87
2022/07/15 11:59:33;;;;;;;;;;;;;;;;;;5012580;28;19914;-85
2022/07/15 12:01:59;;;;;;;;;;;;;;;;;;4993596;28;19972;-86
2022/07/15 12:04:24;;;;;;;;;;;;;;;;;;4975934;28;19925;-85
2022/07/15 12:06:50;;;;;;;;;;;;;;;;;;4993116;28;19914;-82
2022/07/15 12:09:16;;;;;;;;;;;;;;;;;;4994700;28;20420;-83
2022/07/15 12:11:41;;;;;;;;;;;;;;;;;;4997854;28;19914;-83
2022/07/15 12:14:07;;;;;;;;;;;;;;;;;;5015092;28;19921;-83
2022/07/15 12:16:32;;;;;;;;;;;;;;;;;;4985027;28;19925;-83
2022/07/15 12:18:58;;;;;;;;;;;;;;;;;;5001111;28;19921;-83
2022/07/15 12:21:23;;;;;;;;;;;;;;;;;;4985047;28;20377;-82
2022/07/15 12:23:49;;;;;;;;;;;;;;;;;;5000397;28;19918;-83
2022/07/15 12:26:14;;;;;;;;;;;;;;;;;;4999115;28;19939;-84
2022/07/15 12:28:39;;;;;;;;;;;;;;;;;;4983824;28;20388;-83
2022/07/15 12:31:05;;;;;;;;;;;;;;;;;;4998571;28;19981;-83
2022/07/15 12:33:30;;;;;;;;;;;;;;;;;;4997360;28;20285;-83
2022/07/15 12:35:56;;;;;;;;;;;;;;;;;;5014525;28;19918;-83
2022/07/15 12:38:21;;;;;;;;;;;;;;;;;;4979714;28;19921;-84
2022/07/15 12:40:46;;;;;;;;;;;;;;;;;;4997071;28;19921;-83
2022/07/15 12:43:12;;;;;;;;;;;;;;;;;;4995784;28;20301;-83
2022/07/15 12:45:37;;;;;;;;;;;;;;;;;;4997260;28;19914;-82
2022/07/15 12:48:03;;;;;;;;;;;;;;;;;;4981735;28;20383;-82
2022/07/15 12:50:28;;;;;;;;;;;;;;;;;;4982443;28;19960;-84
2022/07/15 12:52:53;;;;;;;;;;;;;;;;;;4981439;28;20360;-83
2022/07/15 12:55:19;;;;;;;;;;;;;;;;;;4997555;28;19913;-84
2022/07/15 12:57:44;;;;;;;;;;;;;;;;;;5031067;28;19913;-84
2022/07/15 13:00:10;;;;;;;;;;;;;;;;;;5002764;28;19948;-87
2022/07/15 13:02:36;;;;;;;;;;;;;;;;;;5019978;28;19940;-88
2022/07/15 13:05:01;;;;;;;;;;;;;;;;;;5021014;28;19925;-86
2022/07/15 13:07:26;;;;;;;;;;;;;;;;;;4993622;28;19973;-88
2022/07/15 13:09:52;;;;;;;;;;;;;;;;;;4991339;28;19913;-90
2022/07/15 13:12:17;;;;;;;;;;;;;;;;;;5007447;28;19924;-89
2022/07/15 13:14:43;;;;;;;;;;;;;;;;;;5005529;28;20344;-90
2022/07/15 13:17:08;;;;;;;;;;;;;;;;;;5010503;28;20243;-90
2022/07/15 13:19:34;;;;;;;;;;;;;;;;;;5014454;28;19913;-89
2022/07/15 13:22:00;;;;;;;;;;;;;;;;;;5011325;28;19929;-90
2022/07/15 13:24:25;;;;;;;;;;;;;;;;;;5009992;28;19985;-89
2022/07/15 13:26:51;;;;;;;;;;;;;;;;;;4997238;28;19914;-88
2022/07/15 13:29:16;;;;;;;;;;;;;;;;;;5007252;28;19914;-90
2022/07/15 13:31:42;;;;;;;;;;;;;;;;;;5003982;28;19921;-89
2022/07/15 13:34:07;;;;;;;;;;;;;;;;;;4986603;28;19913;-90
2022/07/15 13:36:33;;;;;;;;;;;;;;;;;;4980268;28;20313;-87
2022/07/15 13:38:58;;;;;;;;;;;;;;;;;;4991741;28;19920;-87
2022/07/15 13:41:24;;;;;;;;;;;;;;;;;;4998597;28;20278;-88
2022/07/15 13:43:49;;;;;;;;;;;;;;;;;;5011809;28;20392;-86
2022/07/15 13:46:14;;;;;;;;;;;;;;;;;;5000017;28;19918;-84
2022/07/15 13:48:40;;;;;;;;;;;;;;;;;;4994857;28;20324;-85
2022/07/15 13:51:24;;;;;;;;;;;;;;;;;;5005972;28;19902;-87
2022/07/15 13:53:49;;;;;;;;;;;;;;;;;;4991512;28;19985;-86
2022/07/15 13:56:14;;;;;;;;;;;;;;;;;;4979210;28;20274;-83
2022/07/15 13:58:40;;;;;;;;;;;;;;;;;;4981080;28;20168;-83
2022/07/15 14:01:05;;;;;;;;;;;;;;;;;;4980019;28;20030;-84
2022/07/15 14:03:31;;;;;;;;;;;;;;;;;;4977652;28;20379;-84
2022/07/15 14:06:17;;;;;;;;;;;;;;;;;;4983405;28;19918;-84
2022/07/15 14:08:42;;;;;;;;;;;;;;;;;;4976200;28;19914;-85
2022/07/15 14:11:07;;;;;;;;;;;;;;;;;;4994863;28;19914;-84
2022/07/15 14:13:33;;;;;;;;;;;;;;;;;;4993676;28;19910;-84
2022/07/15 14:15:58;;;;;;;;;;;;;;;;;;4993674;28;19933;-83
2022/07/15 14:18:42;;;;;;;;;;;;;;;;;;4992332;28;19914;-84
2022/07/15 14:21:07;;;;;;;;;;;;;;;;;;4978566;28;19921;-84
2022/07/15 14:23:33;;;;;;;;;;;;;;;;;;5003696;28;19918;-82
2022/07/15 14:25:58;;;;;;;;;;;;;;;;;;5004706;28;20012;-84
2022/07/15 14:28:25;;;;;;;;;;;;;;;;;;5002611;28;19976;-85
2022/07/15 14:30:51;;;;;;;;;;;;;;;;;;5003139;28;19914;-85
2022/07/15 14:33:16;;;;;;;;;;;;;;;;;;4988161;28;19972;-85
2022/07/15 14:35:41;;;;;;;;;;;;;;;;;;4997113;28;20286;-82
2022/07/15 14:38:07;;;;;;;;;;;;;;;;;;5001034;28;19914;-85
2022/07/15 14:40:32;;;;;;;;;;;;;;;;;;5002784;28;19917;-83
2022/07/15 14:42:58;;;;;;;;;;;;;;;;;;4983944;28;19918;-85
2022/07/15 14:45:23;;;;;;;;;;;;;;;;;;4999387;28;20005;-83
2022/07/15 14:47:48;;;;;;;;;;;;;;;;;;4999257;28;20377;-82
2022/07/15 14:50:14;;;;;;;;;;;;;;;;;;4997427;28;20288;-84
2022/07/15 14:52:39;;;;;;;;;;;;;;;;;;5005917;28;19920;-82
2022/07/15 14:55:04;;;;;;;;;;;;;;;;;;4996070;28;19914;-82
2022/07/15 14:57:30;;;;;;;;;;;;;;;;;;4994281;28;20207;-83
2022/07/15 14:59:55;;;;;;;;;;;;;;;;;;4997535;28;19940;-83
2022/07/15 15:02:21;;;;;;;;;;;;;;;;;;4995877;28;20364;-82
2022/07/15 15:04:47;;;;;;;;;;;;;;;;;;4992369;28;19925;-82
2022/07/15 15:07:12;;;;;;;;;;;;;;;;;;4998869;28;20025;-82
2022/07/15 15:09:38;;;;;;;;;;;;;;;;;;4991846;28;19914;-80
2022/07/15 15:12:03;;;;;;;;;;;;;;;;;;4976728;28;19957;-83
2022/07/15 15:14:31;;;;;;;;;;;;;;;;;;4972711;28;19910;-83
2022/07/15 15:16:57;;;;;;;;;;;;;;;;;;4975118;28;20271;-83
2022/07/15 15:19:22;;;;;;;;;;;;;;;;;;4997738;28;19968;-82
2022/07/15 15:21:47;;;;;;;;;;;;;;;;;;4993102;28;19917;-81
2022/07/15 15:24:13;;;;;;;;;;;;;;;;;;4992619;28;20286;-83
2022/07/15 15:26:39;;;;;;;;;;;;;;;;;;4993006;28;19914;-86
2022/07/15 15:29:10;;;;;;;;;;;;;;;;;;4991531;28;19964;-79
2022/07/15 15:31:36;;;;;;;;;;;;;;;;;;4991917;28;19917;-82
2022/07/15 15:34:01;;;;;;;;;;;;;;;;;;4992144;28;20322;-83
2022/07/15 15:36:30;;;;;;;;;;;;;;;;;;4992701;28;19914;-83
2022/07/15 15:38:55;;;;;;;;;;;;;;;;;;4992637;28;20405;-82
2022/07/15 15:41:20;;;;;;;;;;;;;;;;;;4992902;28;19909;-86
2022/07/15 15:43:46;;;;;;;;;;;;;;;;;;5007232;28;19929;-86
2022/07/15 15:46:11;;;;;;;;;;;;;;;;;;4992728;28;19937;-85
2022/07/15 15:48:37;;;;;;;;;;;;;;;;;;4975993;28;19965;-85
2022/07/15 15:51:02;;;;;;;;;;;;;;;;;;4993126;28;19921;-84
2022/07/15 15:53:27;;;;;;;;;;;;;;;;;;4975988;28;19922;-84
2022/07/15 15:55:53;;;;;;;;;;;;;;;;;;4961143;28;19914;-84
2022/07/15 15:58:18;;;;;;;;;;;;;;;;;;4981268;28;19910;-80
2022/07/15 16:00:44;;;;;;;;;;;;;;;;;;4981195;28;19914;-81
2022/07/15 16:03:09;;;;;;;;;;;;;;;;;;4984106;28;19921;-79
2022/07/15 16:05:35;;;;;;;;;;;;;;;;;;5000474;23;20304;-90
2022/07/15 16:08:03;;;;;;;;;;;;;;;;;;4982930;28;19924;-91
2022/07/15 16:10:50;;;;;;;;;;;;;;;;;;4986022;28;19913;-93
2022/07/15 16:13:24;;;;;;;;;;;;;;;;;;4984815;28;19914;-93
2022/07/15 16:15:49;;;;;;;;;;;;;;;;;;4986891;28;19950;-90
2022/07/15 16:18:17;;;;;;;;;;;;;;;;;;4966296;28;19985;-93
2022/07/15 16:20:50;;;;;;;;;;;;;;;;;;4991734;28;20104;-92
2022/07/15 16:23:16;;;;;;;;;;;;;;;;;;4990169;28;19990;-94
2022/07/15 16:25:41;;;;;;;;;;;;;;;;;;4984994;28;20379;-93
2022/07/15 16:28:11;;;;;;;;;;;;;;;;;;4981667;28;19918;-94
2022/07/15 16:30:37;;;;;;;;;;;;;;;;;;4982865;28;19914;-93
2022/07/15 16:33:03;;;;;;;;;;;;;;;;;;4972401;28;19914;-93
2022/07/15 16:35:29;;;;;;;;;;;;;;;;;;4987263;28;19942;-92
2022/07/15 16:37:58;;;;;;;;;;;;;;;;;;4989870;28;20374;-93
2022/07/15 16:40:26;;;;;;;;;;;;;;;;;;4986140;28;19914;-93
2022/07/15 16:42:57;;;;;;;;;;;;;;;;;;4984163;28;19976;-87
2022/07/15 16:45:25;;;;;;;;;;;;;;;;;;4978021;28;20396;-89
2022/07/15 16:47:53;;;;;;;;;;;;;;;;;;4962874;28;19925;-90
2022/07/15 16:50:19;;;;;;;;;;;;;;;;;;4982778;28;19915;-90
2022/07/15 16:52:49;;;;;;;;;;;;;;;;;;4989783;28;19921;-88
2022/07/15 16:55:15;;;;;;;;;;;;;;;;;;4965634;28;19981;-88